Aerial Acres, California
Current Conditions -  °F | °C
As of 3:58 PM on Sunday 21 Dec 2014 (Local Time) from KEDW Reporting Station
Overcast Overcast  
Wind Chill: 58°   Ceiling: 26000
Heat Index: 58°   Visibility: 60mi
Dew Point: 47°   Wind: 9mph
Humidity: 67%   Direction: 340°NNW
Pressure: 30.11"   Gusts: NA
Location:  34.931°N, 117.867°W
Report Text: KEDW 212358Z 34008KT 60SM FEW040 FEW210 OVC260 15/09 A3011 RMK AO2A SLP196 CONTRAILS T01450085 10153 20066 53005
Loading
Personal Weather Stations






























Interactive Weather Map New forecast layout! Learn more

10-Day Weather Forecast

Advertisements
Track Severe Weather on mobile